Time;durP1;ratioP1;P1;durP2;ratioP2;P2;SDS_P1;SDS_P2;PMS_P1;PMS_P2;Temp;Humidity;BMP_temperature;BMP_pressure;BME280_temperature;BME280_humidity;BME280_pressure;Samples;Min_cycle;Max_cycle;Signal;HPM_P1;HPM_P2
2023/07/12 00:00:04;;;;;;;7.33;6.63;;;19.80;99.90;;;;;;493319;242;28788;-80
2023/07/12 00:02:06;;;;;;;8.87;6.73;;;19.80;99.90;;;;;;493285;242;28808;-83
2023/07/12 00:04:07;;;;;;;6.73;5.80;;;19.80;99.90;;;;;;493260;242;28888;-81
2023/07/12 00:06:08;;;;;;;7.33;6.13;;;19.80;99.90;;;;;;493272;240;28847;-82
2023/07/12 00:08:09;;;;;;;13.90;8.37;;;19.90;99.90;;;;;;493251;242;28809;-84
2023/07/12 00:10:10;;;;;;;7.20;6.50;;;19.80;99.90;;;;;;493211;242;28815;-80
2023/07/12 00:12:12;;;;;;;10.30;6.70;;;19.80;99.90;;;;;;493217;242;28940;-83
2023/07/12 00:14:13;;;;;;;11.17;6.90;;;19.70;99.90;;;;;;493242;242;28827;-82
2023/07/12 00:16:14;;;;;;;8.93;5.80;;;19.80;99.90;;;;;;493242;242;29482;-80
2023/07/12 00:18:15;;;;;;;10.80;6.40;;;19.70;99.90;;;;;;493193;242;29302;-82
2023/07/12 00:20:17;;;;;;;7.57;6.73;;;19.70;99.90;;;;;;493189;242;29363;-81
2023/07/12 00:22:18;;;;;;;8.10;6.33;;;19.70;99.90;;;;;;493139;242;29268;-83
2023/07/12 00:24:19;;;;;;;9.93;6.37;;;19.70;99.90;;;;;;493227;242;28873;-81
2023/07/12 00:26:20;;;;;;;6.83;6.17;;;19.70;99.90;;;;;;493192;242;28781;-84
2023/07/12 00:28:22;;;;;;;9.40;6.50;;;19.70;99.90;;;;;;493050;242;28804;-85
2023/07/12 00:30:23;;;;;;;7.57;6.30;;;19.70;99.90;;;;;;493104;242;28829;-82
2023/07/12 00:32:24;;;;;;;10.20;7.20;;;19.60;99.90;;;;;;493090;242;28885;-84
2023/07/12 00:34:25;;;;;;;10.00;7.10;;;19.70;99.90;;;;;;493193;242;28818;-82
2023/07/12 00:36:27;;;;;;;7.63;6.30;;;19.60;99.90;;;;;;493212;242;28797;-81
2023/07/12 00:38:28;;;;;;;9.60;6.23;;;19.60;99.90;;;;;;493206;242;28917;-82
2023/07/12 00:40:29;;;;;;;8.30;6.87;;;19.60;99.90;;;;;;493277;242;29341;-84
2023/07/12 00:42:30;;;;;;;7.83;6.20;;;19.60;99.90;;;;;;493240;242;29378;-82
2023/07/12 00:44:32;;;;;;;6.40;5.87;;;19.60;99.90;;;;;;493239;242;29269;-81
2023/07/12 00:46:33;;;;;;;6.90;6.00;;;19.60;99.90;;;;;;493224;242;28796;-83
2023/07/12 00:48:34;;;;;;;8.57;5.50;;;19.60;99.90;;;;;;493216;242;28803;-83
2023/07/12 00:50:35;;;;;;;5.80;5.20;;;19.70;99.90;;;;;;493235;242;28830;-83
2023/07/12 00:52:37;;;;;;;6.67;6.00;;;19.60;99.90;;;;;;493237;242;28835;-82
2023/07/12 00:54:38;;;;;;;6.07;5.47;;;19.70;99.90;;;;;;493298;242;28854;-81
2023/07/12 00:56:39;;;;;;;7.43;5.87;;;19.70;99.90;;;;;;493246;242;28812;-82
2023/07/12 00:58:40;;;;;;;7.40;5.90;;;19.70;99.90;;;;;;493219;242;28826;-83
2023/07/12 01:00:42;;;;;;;10.03;6.13;;;19.70;99.90;;;;;;493238;242;28893;-80
2023/07/12 01:02:43;;;;;;;8.77;5.33;;;19.70;99.90;;;;;;493201;242;28809;-82
2023/07/12 01:04:44;;;;;;;8.03;5.80;;;19.60;99.90;;;;;;493194;242;29274;-82
2023/07/12 01:06:45;;;;;;;6.77;5.30;;;19.60;99.90;;;;;;493204;242;29415;-83
2023/07/12 01:08:47;;;;;;;7.13;5.77;;;19.60;99.90;;;;;;493268;242;29264;-82
2023/07/12 01:10:48;;;;;;;13.10;6.37;;;19.60;99.90;;;;;;493248;242;28942;-83
2023/07/12 01:12:49;;;;;;;7.63;5.77;;;19.60;99.90;;;;;;493297;242;28818;-81
2023/07/12 01:14:50;;;;;;;8.40;5.77;;;19.70;99.90;;;;;;493341;242;28905;-84
2023/07/12 01:16:52;;;;;;;8.83;5.53;;;19.70;99.90;;;;;;493274;242;28787;-85
2023/07/12 01:18:53;;;;;;;7.63;5.40;;;19.70;99.90;;;;;;493311;242;28792;-83
2023/07/12 01:20:54;;;;;;;5.30;4.80;;;19.70;99.90;;;;;;493236;242;28735;-83
2023/07/12 01:22:55;;;;;;;7.63;5.30;;;19.60;99.90;;;;;;493315;242;28932;-79
2023/07/12 01:24:57;;;;;;;6.20;5.60;;;19.60;99.90;;;;;;491982;242;28814;-83
2023/07/12 01:26:58;;;;;;;7.37;5.93;;;19.60;99.90;;;;;;491736;242;28850;-82
2023/07/12 01:28:59;;;;;;;11.70;6.17;;;19.60;99.90;;;;;;491751;242;30064;-83
2023/07/12 01:31:00;;;;;;;10.23;6.03;;;19.60;99.90;;;;;;491737;242;29384;-82
2023/07/12 01:33:03;;;;;;;6.17;5.57;;;19.60;99.90;;;;;;491797;242;28802;-83
2023/07/12 01:35:03;;;;;;;7.13;5.60;;;19.60;99.90;;;;;;491395;242;28797;-82
2023/07/12 01:37:05;;;;;;;7.43;5.97;;;19.60;99.90;;;;;;491729;242;28799;-81
2023/07/12 01:39:05;;;;;;;11.73;6.50;;;19.60;99.90;;;;;;491683;242;28834;-85
2023/07/12 01:41:07;;;;;;;8.43;5.60;;;19.60;99.90;;;;;;491688;242;28889;-82
2023/07/12 01:43:08;;;;;;;6.57;5.30;;;19.60;99.90;;;;;;491739;242;28945;-82
2023/07/12 01:45:09;;;;;;;7.10;5.00;;;19.60;99.90;;;;;;491706;242;28711;-83
2023/07/12 01:47:10;;;;;;;9.20;5.53;;;19.60;99.90;;;;;;491752;242;28867;-83
2023/07/12 01:49:12;;;;;;;8.00;5.53;;;19.60;99.90;;;;;;491635;242;28915;-81
2023/07/12 01:51:13;;;;;;;8.83;5.93;;;19.60;99.90;;;;;;491685;242;29318;-81
2023/07/12 01:53:14;;;;;;;9.93;5.70;;;19.60;99.90;;;;;;491709;242;29426;-82
2023/07/12 01:55:15;;;;;;;6.00;5.40;;;19.60;99.90;;;;;;491735;242;29306;-80
2023/07/12 01:57:17;;;;;;;8.47;5.80;;;19.60;99.90;;;;;;491674;242;28831;-80
2023/07/12 01:59:18;;;;;;;11.97;6.90;;;19.60;99.90;;;;;;491647;242;28928;-80
2023/07/12 02:01:19;;;;;;;6.07;5.47;;;19.50;99.90;;;;;;491742;242;28897;-82
2023/07/12 02:03:20;;;;;;;7.80;5.53;;;19.50;99.90;;;;;;491770;242;28900;-80
2023/07/12 02:05:24;;;;;;;9.03;5.53;;;19.50;99.90;;;;;;491788;242;28787;-81
2023/07/12 02:07:26;;;;;;;8.90;5.83;;;19.50;99.90;;;;;;491828;242;28783;-82
2023/07/12 02:09:27;;;;;;;8.67;5.57;;;19.40;99.90;;;;;;491773;242;28919;-84
2023/07/12 02:11:28;;;;;;;8.23;6.23;;;19.40;99.90;;;;;;491779;242;28855;-81
2023/07/12 02:13:29;;;;;;;6.40;5.73;;;19.50;99.90;;;;;;491805;242;28862;-83
2023/07/12 02:15:31;;;;;;;7.97;6.23;;;19.40;99.90;;;;;;491734;242;28790;-83
2023/07/12 02:17:32;;;;;;;8.67;6.23;;;19.40;99.90;;;;;;491716;242;28842;-82
2023/07/12 02:19:33;;;;;;;9.10;6.47;;;19.40;99.90;;;;;;491785;242;29385;-83
2023/07/12 02:21:34;;;;;;;6.20;5.60;;;19.40;99.90;;;;;;491817;242;29276;-84
2023/07/12 02:23:36;;;;;;;9.07;6.70;;;19.40;99.90;;;;;;491787;242;29165;-83
2023/07/12 02:25:37;;;;;;;7.00;5.60;;;19.40;99.90;;;;;;491728;242;28935;-80
2023/07/12 02:27:38;;;;;;;11.00;6.77;;;19.30;99.90;;;;;;491771;242;28819;-82
2023/07/12 02:29:39;;;;;;;9.10;6.33;;;19.30;99.90;;;;;;491805;242;28819;-82
2023/07/12 02:31:41;;;;;;;8.10;6.30;;;19.30;99.90;;;;;;491685;242;28814;-83
2023/07/12 02:33:42;;;;;;;12.23;6.57;;;19.30;99.90;;;;;;491777;242;28815;-80
2023/07/12 02:35:43;;;;;;;9.03;5.97;;;19.30;99.90;;;;;;491782;242;28788;-84
2023/07/12 02:37:44;;;;;;;14.30;6.80;;;19.20;99.90;;;;;;491804;242;28680;-81
2023/07/12 02:39:46;;;;;;;8.53;6.40;;;19.20;99.90;;;;;;491804;240;28810;-79
2023/07/12 02:41:47;;;;;;;15.43;7.40;;;19.20;99.90;;;;;;491794;242;30070;-83
2023/07/12 02:43:48;;;;;;;12.13;6.90;;;19.20;99.90;;;;;;491847;242;29265;-80
2023/07/12 02:45:49;;;;;;;9.00;6.70;;;19.20;99.90;;;;;;491784;242;28882;-81
2023/07/12 02:47:51;;;;;;;11.60;6.50;;;19.20;99.90;;;;;;491717;242;28930;-83
2023/07/12 02:49:52;;;;;;;9.10;6.53;;;19.20;99.90;;;;;;491799;242;28826;-80
2023/07/12 02:51:53;;;;;;;9.30;7.27;;;19.20;99.90;;;;;;491797;242;28812;-83
2023/07/12 02:53:54;;;;;;;7.80;6.10;;;19.20;99.90;;;;;;491762;242;28706;-83
2023/07/12 02:55:56;;;;;;;8.10;6.20;;;19.20;99.90;;;;;;491833;242;29224;-82
2023/07/12 02:57:57;;;;;;;7.83;6.50;;;19.20;99.90;;;;;;491701;242;28819;-82
2023/07/12 02:59:58;;;;;;;10.77;5.60;;;19.20;99.90;;;;;;491753;242;28859;-82
2023/07/12 03:01:59;;;;;;;8.50;6.50;;;19.20;99.90;;;;;;491795;242;29324;-82
2023/07/12 03:04:01;;;;;;;11.60;5.93;;;19.20;99.90;;;;;;491820;242;29266;-81
2023/07/12 03:06:02;;;;;;;7.83;6.40;;;19.20;99.90;;;;;;491833;242;29209;-80
2023/07/12 03:08:03;;;;;;;8.53;6.90;;;19.20;99.90;;;;;;491874;242;29167;-82
2023/07/12 03:10:04;;;;;;;14.40;6.10;;;19.20;99.90;;;;;;491863;242;28709;-82
2023/07/12 03:12:06;;;;;;;9.23;6.60;;;19.20;99.90;;;;;;491840;242;28831;-81
2023/07/12 03:14:07;;;;;;;9.70;6.70;;;19.10;99.90;;;;;;491799;242;28915;-83
2023/07/12 03:16:08;;;;;;;11.73;6.63;;;19.20;99.90;;;;;;491865;242;29168;-81
2023/07/12 03:18:09;;;;;;;10.23;6.63;;;19.10;99.90;;;;;;491802;242;28885;-82
2023/07/12 03:20:11;;;;;;;8.70;6.63;;;19.10;99.90;;;;;;491831;242;28793;-84
2023/07/12 03:22:12;;;;;;;9.00;6.80;;;19.10;99.90;;;;;;491827;242;28765;-81
2023/07/12 03:24:13;;;;;;;8.73;5.93;;;19.10;99.90;;;;;;491788;242;28829;-80
2023/07/12 03:26:15;;;;;;;12.30;6.87;;;19.10;99.90;;;;;;491779;242;29301;-83
2023/07/12 03:28:16;;;;;;;8.10;7.10;;;19.10;99.90;;;;;;491729;242;29368;-83
2023/07/12 03:30:17;;;;;;;10.07;6.00;;;19.10;99.90;;;;;;491770;242;28711;-82
2023/07/12 03:32:19;;;;;;;9.70;7.33;;;19.10;99.90;;;;;;491813;242;28711;-81
2023/07/12 03:34:19;;;;;;;10.43;7.50;;;19.10;99.90;;;;;;491672;242;28920;-82
2023/07/12 03:36:21;;;;;;;9.67;6.83;;;19.10;99.90;;;;;;491793;242;28827;-82
2023/07/12 03:38:25;;;;;;;12.23;7.83;;;19.10;99.90;;;;;;491732;242;28838;-81
2023/07/12 03:40:23;;;;;;;12.33;7.40;;;19.10;99.90;;;;;;491466;242;28735;-84
2023/07/12 03:42:24;;;;;;;14.80;7.80;;;19.10;99.90;;;;;;491772;242;28815;-81
2023/07/12 03:44:26;;;;;;;14.10;7.50;;;19.10;99.90;;;;;;491836;242;28724;-82
2023/07/12 03:46:27;;;;;;;12.83;8.73;;;19.10;99.90;;;;;;491708;242;29259;-80
2023/07/12 03:48:28;;;;;;;17.00;7.43;;;19.10;99.90;;;;;;491742;242;30202;-82
2023/07/12 03:50:29;;;;;;;13.87;8.27;;;19.10;99.90;;;;;;491723;242;28743;-81
2023/07/12 03:52:31;;;;;;;13.23;8.37;;;19.10;99.90;;;;;;491816;242;28828;-81
2023/07/12 03:54:32;;;;;;;16.40;7.60;;;19.00;99.90;;;;;;491708;242;28890;-83
2023/07/12 03:56:33;;;;;;;11.07;8.80;;;19.00;99.90;;;;;;491718;242;28861;-83
2023/07/12 03:58:34;;;;;;;9.00;7.30;;;19.00;99.90;;;;;;491915;242;28787;-82
2023/07/12 04:00:36;;;;;;;14.23;8.40;;;19.00;99.90;;;;;;491770;242;28810;-84
2023/07/12 04:02:37;;;;;;;13.40;8.50;;;19.00;99.90;;;;;;491787;242;28704;-81
2023/07/12 04:04:38;;;;;;;13.57;8.10;;;19.00;99.90;;;;;;491793;242;29369;-82
2023/07/12 04:06:40;;;;;;;10.03;7.57;;;19.00;99.90;;;;;;491778;242;29294;-80
2023/07/12 04:08:41;;;;;;;13.00;8.77;;;19.00;99.90;;;;;;491768;242;28803;-81
2023/07/12 04:10:42;;;;;;;19.40;9.20;;;19.00;99.90;;;;;;491800;242;28803;-80
2023/07/12 04:12:43;;;;;;;15.17;7.83;;;19.00;99.90;;;;;;491629;242;28802;-80
2023/07/12 04:14:45;;;;;;;15.10;8.60;;;19.10;99.90;;;;;;491719;242;28756;-81
2023/07/12 04:16:47;;;;;;;14.90;8.13;;;19.20;99.90;;;;;;491756;242;28801;-82
2023/07/12 04:18:47;;;;;;;17.70;8.40;;;19.30;99.90;;;;;;491671;242;28834;-81
2023/07/12 04:20:48;;;;;;;9.33;7.50;;;19.30;99.90;;;;;;491746;242;28858;-84
2023/07/12 04:22:50;;;;;;;14.00;7.97;;;19.40;99.90;;;;;;491728;242;28867;-83
2023/07/12 04:24:51;;;;;;;9.77;7.50;;;19.50;99.90;;;;;;491631;242;29286;-84
2023/07/12 04:26:52;;;;;;;14.37;8.00;;;19.50;99.90;;;;;;491672;242;29347;-82
2023/07/12 04:28:54;;;;;;;16.33;8.77;;;19.40;99.90;;;;;;491743;242;28815;-83
2023/07/12 04:30:55;;;;;;;10.33;7.10;;;19.50;99.90;;;;;;491630;242;28863;-85
2023/07/12 04:32:56;;;;;;;11.07;8.63;;;19.50;99.90;;;;;;491703;242;28885;-81
2023/07/12 04:34:57;;;;;;;10.00;7.87;;;19.50;99.90;;;;;;491691;242;28867;-83
2023/07/12 04:36:58;;;;;;;14.03;8.67;;;19.50;99.90;;;;;;491698;242;28755;-83
2023/07/12 04:39:00;;;;;;;11.93;7.37;;;19.50;99.90;;;;;;491681;242;28803;-83
2023/07/12 04:41:01;;;;;;;9.90;7.10;;;19.60;99.90;;;;;;491716;242;28820;-82
2023/07/12 04:43:02;;;;;;;11.67;7.93;;;19.60;99.90;;;;;;491723;242;29302;-83
2023/07/12 04:45:04;;;;;;;17.73;7.50;;;19.60;99.90;;;;;;491567;242;29230;-83
2023/07/12 04:47:05;;;;;;;13.40;8.10;;;19.60;99.90;;;;;;491628;242;28869;-85
2023/07/12 04:49:06;;;;;;;12.53;7.40;;;19.60;99.90;;;;;;491730;242;28723;-80
2023/07/12 04:51:07;;;;;;;15.93;9.00;;;19.70;99.90;;;;;;491763;242;28853;-83
2023/07/12 04:53:08;;;;;;;11.87;7.67;;;19.70;99.90;;;;;;491842;242;28838;-83
2023/07/12 04:55:10;;;;;;;11.00;8.00;;;19.80;99.90;;;;;;491839;242;28732;-84
2023/07/12 04:57:11;;;;;;;12.33;7.37;;;19.80;99.90;;;;;;491728;242;28802;-82
2023/07/12 04:59:12;;;;;;;14.90;8.20;;;19.80;99.90;;;;;;491682;242;28836;-80
2023/07/12 05:01:13;;;;;;;14.90;8.03;;;19.90;99.90;;;;;;491844;242;29174;-85
2023/07/12 05:03:18;;;;;;;15.20;8.30;;;19.90;99.90;;;;;;491848;242;29284;-80
2023/07/12 05:05:20;;;;;;;15.43;9.63;;;20.00;99.90;;;;;;491817;242;28837;-80
2023/07/12 05:07:20;;;;;;;12.03;7.87;;;20.00;99.90;;;;;;491827;242;29166;-82
2023/07/12 05:09:22;;;;;;;12.57;8.17;;;20.10;99.90;;;;;;491819;242;29411;-81
2023/07/12 05:11:23;;;;;;;12.67;7.67;;;20.10;99.90;;;;;;491928;242;29323;-81
2023/07/12 05:13:24;;;;;;;24.20;9.10;;;20.10;99.90;;;;;;491825;242;28739;-83
2023/07/12 05:15:25;;;;;;;17.93;8.73;;;20.10;99.90;;;;;;491811;242;28881;-81
2023/07/12 05:17:28;;;;;;;13.43;8.27;;;19.90;99.90;;;;;;491882;242;28744;-80
2023/07/12 05:19:28;;;;;;;10.47;8.23;;;19.80;99.90;;;;;;491650;242;28752;-82
2023/07/12 05:21:29;;;;;;;10.97;8.13;;;19.90;99.90;;;;;;491863;242;29121;-82
2023/07/12 05:23:30;;;;;;;11.90;8.40;;;19.90;99.90;;;;;;491812;242;28766;-82
2023/07/12 05:25:31;;;;;;;10.07;8.30;;;19.90;99.90;;;;;;491753;242;28695;-83
2023/07/12 05:27:33;;;;;;;12.63;8.50;;;19.80;99.90;;;;;;491797;242;29411;-81
2023/07/12 05:29:37;;;;;;;12.20;7.97;;;19.90;99.90;;;;;;491768;242;29285;-80
2023/07/12 05:31:38;;;;;;;12.93;8.40;;;20.00;99.90;;;;;;491853;242;28816;-80
2023/07/12 05:33:39;;;;;;;14.03;8.30;;;20.00;99.90;;;;;;491848;242;28933;-81
2023/07/12 05:35:41;;;;;;;12.10;8.20;;;19.90;99.90;;;;;;491812;242;28807;-81
2023/07/12 05:37:42;;;;;;;15.23;8.10;;;19.90;99.90;;;;;;491800;242;29352;-83
2023/07/12 05:39:43;;;;;;;12.67;7.50;;;20.00;99.90;;;;;;491848;242;29369;-80
2023/07/12 05:41:44;;;;;;;14.47;9.13;;;20.00;99.90;;;;;;491822;242;28832;-83
2023/07/12 05:43:46;;;;;;;13.93;8.87;;;19.90;99.90;;;;;;491802;242;28784;-81
2023/07/12 05:45:47;;;;;;;11.00;7.77;;;19.90;99.90;;;;;;491847;242;28813;-80
2023/07/12 05:47:49;;;;;;;14.30;9.00;;;19.90;99.90;;;;;;491791;242;28826;-82
2023/07/12 05:49:49;;;;;;;16.53;8.47;;;19.90;99.90;;;;;;491722;242;28779;-80
2023/07/12 05:51:51;;;;;;;22.50;9.60;;;19.90;99.90;;;;;;491748;242;28787;-82
2023/07/12 05:53:52;;;;;;;11.00;8.67;;;19.90;99.90;;;;;;491735;242;29363;-81
2023/07/12 05:55:53;;;;;;;12.27;8.37;;;19.90;99.90;;;;;;491744;242;29309;-81
2023/07/12 05:57:54;;;;;;;10.27;8.20;;;20.00;99.90;;;;;;491719;242;29304;-81
2023/07/12 05:59:56;;;;;;;17.97;10.03;;;20.00;99.90;;;;;;491782;242;28799;-81
2023/07/12 06:01:57;;;;;;;23.80;11.13;;;20.00;99.90;;;;;;491748;242;28774;-84
2023/07/12 06:03:58;;;;;;;9.87;8.87;;;20.00;99.90;;;;;;491783;242;28869;-83
2023/07/12 06:05:59;;;;;;;13.37;10.27;;;20.00;99.90;;;;;;491785;242;28840;-81
2023/07/12 06:08:01;;;;;;;16.27;10.90;;;20.10;99.90;;;;;;491785;242;28774;-83
2023/07/12 06:10:03;;;;;;;11.03;9.50;;;20.10;99.90;;;;;;491821;242;28806;-82
2023/07/12 06:12:03;;;;;;;11.70;10.20;;;20.20;99.90;;;;;;491668;242;30246;-83
2023/07/12 06:14:04;;;;;;;13.87;10.00;;;20.30;99.90;;;;;;491671;242;29322;-83
2023/07/12 06:16:06;;;;;;;14.13;10.07;;;20.30;99.90;;;;;;491704;242;28933;-81
2023/07/12 06:18:07;;;;;;;19.10;11.07;;;20.30;99.90;;;;;;491728;242;28827;-83
2023/07/12 06:20:08;;;;;;;13.10;10.37;;;20.20;99.90;;;;;;491625;242;28910;-81
2023/07/12 06:22:10;;;;;;;12.37;9.90;;;20.20;99.90;;;;;;491742;242;28816;-82
2023/07/12 06:24:11;;;;;;;21.07;9.97;;;20.20;99.90;;;;;;491682;242;28770;-82
2023/07/12 06:26:12;;;;;;;16.33;10.53;;;20.20;99.90;;;;;;491609;242;28969;-82
2023/07/12 06:28:13;;;;;;;10.20;9.10;;;20.30;99.90;;;;;;491700;242;29257;-82
2023/07/12 06:30:14;;;;;;;14.33;9.70;;;20.30;99.90;;;;;;491742;242;28803;-82
2023/07/12 06:32:16;;;;;;;11.73;9.53;;;20.30;99.90;;;;;;491683;242;28800;-80
2023/07/12 06:34:17;;;;;;;12.73;9.50;;;20.30;99.90;;;;;;491796;242;28822;-82
2023/07/12 06:36:18;;;;;;;11.13;9.43;;;20.40;99.90;;;;;;491856;242;28947;-81
2023/07/12 06:38:21;;;;;;;14.23;9.30;;;20.50;99.90;;;;;;491862;242;28707;-83
2023/07/12 06:40:21;;;;;;;20.27;11.43;;;20.60;99.90;;;;;;491684;242;28756;-81
2023/07/12 06:42:22;;;;;;;14.13;12.63;;;20.60;99.90;;;;;;491752;242;28711;-82
2023/07/12 06:44:23;;;;;;;16.00;11.00;;;20.50;99.90;;;;;;491860;242;29217;-81
2023/07/12 06:46:25;;;;;;;15.83;11.70;;;20.50;99.90;;;;;;491706;242;29279;-81
2023/07/12 06:48:26;;;;;;;18.87;12.57;;;20.40;99.90;;;;;;491756;242;28889;-81
2023/07/12 06:50:27;;;;;;;14.00;10.90;;;20.40;99.90;;;;;;491785;242;28796;-82
2023/07/12 06:52:28;;;;;;;15.70;11.30;;;20.60;99.90;;;;;;491743;242;28982;-80
2023/07/12 06:54:30;;;;;;;14.13;11.13;;;20.80;99.90;;;;;;491660;242;28873;-84
2023/07/12 06:56:31;;;;;;;15.43;11.00;;;21.00;99.90;;;;;;491715;242;29274;-81
2023/07/12 06:58:32;;;;;;;13.30;10.60;;;21.00;99.90;;;;;;491798;242;29375;-82
2023/07/12 07:00:33;;;;;;;12.63;11.30;;;21.20;99.90;;;;;;491683;242;28938;-81
2023/07/12 07:02:35;;;;;;;13.30;10.50;;;21.30;99.90;;;;;;491706;242;28780;-81
2023/07/12 07:04:36;;;;;;;10.50;9.50;;;21.30;99.90;;;;;;491711;242;28783;-83
2023/07/12 07:06:37;;;;;;;10.83;9.73;;;21.50;99.90;;;;;;491738;242;28799;-83
2023/07/12 07:08:38;;;;;;;12.30;9.90;;;21.70;99.90;;;;;;491630;242;28858;-82
2023/07/12 07:10:40;;;;;;;12.47;9.10;;;21.70;99.90;;;;;;491624;242;28919;-82
2023/07/12 07:12:41;;;;;;;11.50;9.10;;;21.70;99.90;;;;;;491653;242;29386;-81
2023/07/12 07:14:42;;;;;;;17.60;11.33;;;21.80;99.90;;;;;;491551;242;29390;-81
2023/07/12 07:16:43;;;;;;;14.10;9.50;;;21.90;99.90;;;;;;491590;242;28820;-81
2023/07/12 07:18:45;;;;;;;12.77;9.53;;;21.70;99.90;;;;;;491558;242;28803;-82
2023/07/12 07:20:46;;;;;;;12.33;9.03;;;21.70;99.90;;;;;;491662;242;28795;-81
2023/07/12 07:22:47;;;;;;;13.50;9.43;;;21.80;99.90;;;;;;491608;242;28817;-80
2023/07/12 07:24:48;;;;;;;18.03;10.57;;;22.00;99.90;;;;;;491541;242;28855;-82
2023/07/12 07:26:50;;;;;;;12.00;10.80;;;22.00;99.90;;;;;;491594;242;28860;-79
2023/07/12 07:28:51;;;;;;;14.40;10.20;;;22.00;99.90;;;;;;491548;242;29358;-80
2023/07/12 07:30:52;;;;;;;11.70;10.50;;;21.90;99.90;;;;;;491481;242;29395;-82
2023/07/12 07:32:54;;;;;;;15.13;10.60;;;21.70;99.90;;;;;;491425;242;28845;-81
2023/07/12 07:34:55;;;;;;;19.33;11.77;;;21.40;99.90;;;;;;491318;242;28876;-81
2023/07/12 07:36:56;;;;;;;19.50;10.70;;;21.20;99.90;;;;;;491334;242;28820;-82
2023/07/12 07:38:57;;;;;;;12.77;11.33;;;21.30;99.90;;;;;;491341;242;28891;-82
2023/07/12 07:40:58;;;;;;;16.67;14.70;;;21.40;99.90;;;;;;491244;242;28845;-82
2023/07/12 07:43:00;;;;;;;19.00;17.00;;;21.40;99.90;;;;;;491167;242;29050;-83
2023/07/12 07:45:01;;;;;;;20.60;16.60;;;21.20;99.90;;;;;;491065;242;29362;-84
2023/07/12 07:47:02;;;;;;;18.60;15.67;;;21.10;99.90;;;;;;490863;242;28842;-81
2023/07/12 07:49:04;;;;;;;22.00;17.53;;;21.10;99.90;;;;;;491031;242;28947;-81
2023/07/12 07:51:05;;;;;;;18.37;15.13;;;21.10;99.90;;;;;;491042;242;28827;-81
2023/07/12 07:53:06;;;;;;;24.93;17.20;;;21.20;99.90;;;;;;490996;242;28819;-79
2023/07/12 07:55:07;;;;;;;23.40;17.63;;;21.20;99.90;;;;;;490952;242;28929;-82
2023/07/12 07:57:09;;;;;;;19.03;17.07;;;21.40;99.90;;;;;;490925;242;28879;-80
2023/07/12 07:59:10;;;;;;;18.20;15.83;;;21.60;99.90;;;;;;490920;242;29336;-81
2023/07/12 08:01:11;;;;;;;18.87;15.20;;;21.80;99.90;;;;;;490848;242;29274;-83
2023/07/12 08:03:12;;;;;;;27.80;16.73;;;22.00;99.90;;;;;;490742;242;28846;-80
2023/07/12 08:05:14;;;;;;;15.50;13.77;;;22.10;99.90;;;;;;490803;242;28922;-80
2023/07/12 08:07:15;;;;;;;16.60;13.93;;;22.20;99.90;;;;;;490795;242;28803;-80
2023/07/12 08:09:16;;;;;;;18.07;15.00;;;22.30;99.90;;;;;;490827;242;28820;-79
2023/07/12 08:11:17;;;;;;;14.60;13.00;;;22.40;99.90;;;;;;490719;242;28813;-81
2023/07/12 08:13:19;;;;;;;19.17;15.50;;;22.50;99.90;;;;;;490730;242;29347;-80
2023/07/12 08:15:20;;;;;;;21.27;15.07;;;22.30;99.90;;;;;;490796;242;29546;-81
2023/07/12 08:17:21;;;;;;;15.67;14.03;;;22.20;99.90;;;;;;490591;242;28942;-80
2023/07/12 08:19:22;;;;;;;14.17;12.67;;;22.50;99.90;;;;;;490667;242;28900;-79
2023/07/12 08:21:24;;;;;;;18.57;13.13;;;22.60;99.90;;;;;;490693;242;28808;-81
2023/07/12 08:23:25;;;;;;;18.70;12.60;;;22.60;99.90;;;;;;490732;242;28844;-80
2023/07/12 08:25:26;;;;;;;12.60;10.50;;;22.50;99.90;;;;;;490690;242;28893;-81
2023/07/12 08:27:28;;;;;;;13.60;11.27;;;22.50;99.90;;;;;;490705;242;29398;-82
2023/07/12 08:29:29;;;;;;;14.80;10.90;;;22.70;99.90;;;;;;490673;242;29342;-79
2023/07/12 08:31:30;;;;;;;10.30;9.30;;;22.90;99.90;;;;;;490582;242;28891;-80
2023/07/12 08:33:31;;;;;;;13.73;12.27;;;23.10;99.90;;;;;;490630;242;28811;-79
2023/07/12 08:35:32;;;;;;;11.50;10.33;;;23.30;99.90;;;;;;490651;242;28982;-80
2023/07/12 08:37:34;;;;;;;11.23;10.03;;;23.20;99.90;;;;;;490529;242;28816;-81
2023/07/12 08:39:35;;;;;;;17.07;10.87;;;23.20;99.90;;;;;;490614;242;28936;-78
2023/07/12 08:41:37;;;;;;;17.57;11.83;;;23.20;99.90;;;;;;490640;242;29339;-80
2023/07/12 08:43:37;;;;;;;12.17;10.70;;;23.20;99.90;;;;;;490458;242;29382;-80
2023/07/12 08:45:39;;;;;;;19.00;11.70;;;22.90;99.90;;;;;;482184;242;28986;-78
2023/07/12 08:47:40;;;;;;;14.67;10.60;;;23.10;99.90;;;;;;476061;249;28798;-80
2023/07/12 08:49:41;;;;;;;14.17;11.57;;;23.20;99.90;;;;;;475956;250;28822;-81
2023/07/12 08:51:43;;;;;;;15.23;11.83;;;22.90;99.90;;;;;;475986;250;28789;-79
2023/07/12 08:53:44;;;;;;;12.00;10.77;;;22.90;99.90;;;;;;475945;250;28860;-80
2023/07/12 08:55:45;;;;;;;12.90;10.83;;;22.90;99.90;;;;;;475613;249;29339;-80
2023/07/12 08:57:46;;;;;;;16.27;12.63;;;23.00;99.90;;;;;;475614;249;29276;-79
2023/07/12 08:59:48;;;;;;;12.40;10.80;;;23.00;99.90;;;;;;475599;250;28905;-79
2023/07/12 09:01:49;;;;;;;11.80;9.93;;;22.80;99.90;;;;;;475561;250;28823;-79
2023/07/12 09:03:50;;;;;;;11.47;10.13;;;22.90;99.90;;;;;;475620;249;28784;-80
2023/07/12 09:05:51;;;;;;;14.00;11.60;;;23.00;99.90;;;;;;475565;249;28816;-80
2023/07/12 09:07:53;;;;;;;10.20;9.03;;;23.00;99.90;;;;;;475554;250;28791;-80
2023/07/12 09:09:54;;;;;;;10.83;8.80;;;23.20;99.90;;;;;;475526;249;28924;-80
2023/07/12 09:11:55;;;;;;;10.43;9.33;;;23.20;99.90;;;;;;475537;249;29340;-79
2023/07/12 09:13:56;;;;;;;13.03;10.17;;;23.40;99.90;;;;;;475558;249;29417;-79
2023/07/12 09:15:58;;;;;;;10.97;8.57;;;23.60;99.90;;;;;;475547;249;28862;-80
2023/07/12 09:17:59;;;;;;;8.77;7.40;;;23.50;99.90;;;;;;475526;249;28869;-80
2023/07/12 09:20:00;;;;;;;8.93;7.00;;;23.60;99.90;;;;;;475579;249;28899;-82
2023/07/12 09:22:01;;;;;;;9.00;7.43;;;23.60;99.90;;;;;;475566;249;28876;-79
2023/07/12 09:24:06;;;;;;;8.20;6.30;;;23.50;99.90;;;;;;475539;249;28767;-79
2023/07/12 09:26:05;;;;;;;6.93;6.20;;;23.30;99.90;;;;;;475354;250;28809;-80
2023/07/12 09:28:05;;;;;;;9.33;6.03;;;23.10;99.90;;;;;;475487;250;28858;-79
2023/07/12 09:30:06;;;;;;;10.77;6.27;;;23.10;99.90;;;;;;475510;249;28831;-80
2023/07/12 09:32:08;;;;;;;6.13;5.53;;;23.10;99.90;;;;;;475482;249;29330;-79
2023/07/12 09:34:09;;;;;;;6.00;4.97;;;23.10;99.90;;;;;;475458;249;29293;-80
2023/07/12 09:36:10;;;;;;;5.30;4.67;;;23.20;99.90;;;;;;475456;249;29312;-80
2023/07/12 09:38:12;;;;;;;6.83;4.80;;;23.30;99.90;;;;;;475421;249;29316;-80
2023/07/12 09:40:13;;;;;;;5.87;5.07;;;23.60;99.90;;;;;;475510;249;28789;-79
2023/07/12 09:42:14;;;;;;;9.63;4.07;;;23.90;99.90;;;;;;475500;249;28820;-79
2023/07/12 09:44:15;;;;;;;9.20;4.20;;;24.00;99.90;;;;;;475478;249;28779;-80
2023/07/12 09:46:16;;;;;;;4.30;3.90;;;24.00;99.90;;;;;;475424;249;28885;-80
2023/07/12 09:48:18;;;;;;;4.27;3.87;;;24.00;99.90;;;;;;475504;249;28907;-79
2023/07/12 09:50:19;;;;;;;6.50;4.20;;;24.10;99.90;;;;;;475478;249;28873;-78
2023/07/12 09:52:20;;;;;;;4.70;3.90;;;24.20;99.90;;;;;;475451;249;28800;-78
2023/07/12 09:54:21;;;;;;;5.30;3.50;;;24.40;99.90;;;;;;475458;249;28784;-78
2023/07/12 09:56:23;;;;;;;4.40;4.00;;;24.50;99.90;;;;;;475421;249;29264;-79
2023/07/12 09:58:24;;;;;;;6.00;3.70;;;24.60;99.90;;;;;;475427;249;30140;-79
2023/07/12 10:00:26;;;;;;;6.40;3.73;;;24.70;99.90;;;;;;475445;249;29333;-79
2023/07/12 10:02:26;;;;;;;5.30;3.40;;;24.80;99.90;;;;;;475379;249;29417;-80
2023/07/12 10:04:28;;;;;;;7.30;3.47;;;24.80;99.90;;;;;;475422;249;28856;-79
2023/07/12 10:06:29;;;;;;;6.77;3.07;;;24.60;99.90;;;;;;475407;250;28915;-78
2023/07/12 10:08:30;;;;;;;3.47;3.17;;;24.50;99.90;;;;;;475340;250;28902;-79
2023/07/12 10:10:31;;;;;;;5.57;3.27;;;24.70;99.90;;;;;;475438;249;28792;-79
2023/07/12 10:12:33;;;;;;;4.20;2.83;;;25.10;99.90;;;;;;475407;250;28820;-79
2023/07/12 10:14:34;;;;;;;4.43;2.80;;;25.30;99.90;;;;;;475445;249;28776;-79
2023/07/12 10:16:35;;;;;;;5.93;2.97;;;25.10;99.90;;;;;;475419;249;28917;-79
2023/07/12 10:18:36;;;;;;;4.53;3.67;;;25.00;99.90;;;;;;475428;249;28862;-79
2023/07/12 10:20:39;;;;;;;3.47;3.17;;;25.10;99.90;;;;;;475438;249;29257;-79
2023/07/12 10:22:39;;;;;;;7.53;3.23;;;24.60;99.90;;;;;;475355;249;29389;-79